Time;durP1;ratioP1;P1;durP2;ratioP2;P2;SDS_P1;SDS_P2;PMS_P1;PMS_P2;Temp;Humidity;BMP_temperature;BMP_pressure;BME280_temperature;BME280_humidity;BME280_pressure;Samples;Min_cycle;Max_cycle;Signal;HPM_P1;HPM_P2
2023/12/14 00:00:07;;;;;;;10.00;7.03;;;;;;;8.20;65.28;98042.31;5032072;28;20413;-74
2023/12/14 00:02:33;;;;;;;12.02;7.82;;;;;;;8.19;65.43;98038.91;5031073;28;20032;-75
2023/12/14 00:04:58;;;;;;;10.52;7.40;;;;;;;8.18;65.25;98033.81;5031200;28;20038;-75
2023/12/14 00:07:24;;;;;;;11.50;7.25;;;;;;;8.18;65.38;98042.44;5031085;28;20026;-76
2023/12/14 00:09:49;;;;;;;10.63;6.60;;;;;;;8.18;65.11;98049.41;5063762;28;20049;-75
2023/12/14 00:12:14;;;;;;;11.40;7.05;;;;;;;8.17;65.29;98056.38;5030701;28;20037;-76
2023/12/14 00:14:40;;;;;;;10.13;6.63;;;;;;;8.17;65.11;98051.16;5031011;28;20393;-76
2023/12/14 00:17:05;;;;;;;11.75;6.88;;;;;;;8.17;65.33;98056.38;5032305;28;20037;-76
2023/12/14 00:19:31;;;;;;;10.13;7.10;;;;;;;8.12;65.18;98045.50;5032096;28;20033;-76
2023/12/14 00:21:56;;;;;;;10.77;7.18;;;;;;;8.12;65.57;98041.13;5030599;28;20529;-75
2023/12/14 00:24:22;;;;;;;9.18;6.80;;;;;;;8.11;65.56;98057.69;5029655;28;20095;-75
2023/12/14 00:26:47;;;;;;;11.85;7.45;;;;;;;8.14;65.30;98062.66;5007668;28;20507;-76
2023/12/14 00:29:13;;;;;;;10.50;6.60;;;;;;;8.11;65.12;98059.44;5015014;28;20065;-75
2023/12/14 00:31:38;;;;;;;10.48;6.90;;;;;;;8.10;65.06;98058.63;5031309;28;20029;-74
2023/12/14 00:34:04;;;;;;;11.27;7.22;;;;;;;8.13;65.06;98092.19;5048099;28;20050;-74
2023/12/14 00:36:29;;;;;;;13.27;7.03;;;;;;;8.13;65.08;98086.16;5031200;28;20115;-75
2023/12/14 00:38:55;;;;;;;12.35;7.75;;;;;;;8.13;65.18;98088.75;5031259;28;20030;-75
2023/12/14 00:41:21;;;;;;;10.98;6.70;;;;;;;8.11;65.35;98069.84;5031174;28;20034;-75
2023/12/14 00:43:46;;;;;;;10.98;7.28;;;;;;;8.08;65.38;98050.13;5014660;28;20167;-74
2023/12/14 00:46:12;;;;;;;10.70;6.93;;;;;;;8.09;65.25;98053.53;5047465;28;20030;-75
2023/12/14 00:48:37;;;;;;;12.50;7.25;;;;;;;8.12;65.06;98072.31;5037408;28;20096;-73
2023/12/14 00:51:03;;;;;;;10.18;7.18;;;;;;;8.09;65.21;98075.16;5035800;28;20049;-75
2023/12/14 00:53:28;;;;;;;11.48;7.30;;;;;;;8.10;65.04;98070.78;5034254;28;20036;-76
2023/12/14 00:55:54;;;;;;;11.63;7.13;;;;;;;8.07;65.14;98065.84;5017421;28;20053;-76
2023/12/14 00:58:19;;;;;;;10.45;7.03;;;;;;;8.10;65.25;98071.63;5020593;28;20068;-74
2023/12/14 01:00:45;;;;;;;11.52;7.25;;;;;;;8.08;65.19;98059.66;4998624;28;20030;-76
2023/12/14 01:03:11;;;;;;;12.35;7.38;;;;;;;8.06;65.14;98056.38;5049680;28;20057;-74
2023/12/14 01:05:36;;;;;;;12.02;7.25;;;;;;;8.10;64.81;98068.19;5017839;28;20033;-76
2023/12/14 01:08:02;;;;;;;10.90;7.13;;;;;;;8.08;65.09;98065.72;5023926;28;20108;-75
2023/12/14 01:10:27;;;;;;;11.88;7.55;;;;;;;8.08;64.88;98057.06;5015521;28;20033;-75
2023/12/14 01:12:53;;;;;;;10.48;6.93;;;;;;;8.08;65.14;98054.47;5015378;28;20551;-75
2023/12/14 01:15:18;;;;;;;10.38;7.15;;;;;;;8.08;65.07;98034.53;4981668;28;20061;-75
2023/12/14 01:17:43;;;;;;;10.95;6.97;;;;;;;8.09;64.91;98027.53;5015384;28;20092;-75
2023/12/14 01:20:10;;;;;;;10.32;7.50;;;;;;;8.08;65.27;98044.91;4997953;28;20033;-75
2023/12/14 01:22:35;;;;;;;11.90;6.80;;;;;;;8.06;65.23;98046.78;5015350;28;20026;-75
2023/12/14 01:25:00;;;;;;;12.38;7.03;;;;;;;8.09;65.07;98045.75;5030413;28;20513;-76
2023/12/14 01:27:26;;;;;;;11.63;7.10;;;;;;;8.05;65.26;98028.72;4997623;28;20025;-76
2023/12/14 01:29:51;;;;;;;10.95;6.47;;;;;;;8.02;65.20;98011.59;4981512;28;20486;-75
2023/12/14 01:32:17;;;;;;;9.30;6.35;;;;;;;8.03;64.76;98007.22;5015121;28;20025;-76
2023/12/14 01:34:43;;;;;;;11.73;6.95;;;;;;;8.06;65.20;98014.78;4997647;28;20405;-74
2023/12/14 01:37:08;;;;;;;12.27;6.82;;;;;;;8.04;64.79;97998.50;5014882;28;20054;-75
2023/12/14 01:39:34;;;;;;;10.30;6.93;;;;;;;8.05;65.17;98011.38;5014046;28;20033;-75
2023/12/14 01:41:59;;;;;;;12.05;7.43;;;;;;;8.06;65.23;98007.81;5013463;28;20065;-75
2023/12/14 01:44:25;;;;;;;11.15;6.93;;;;;;;8.06;65.06;97999.19;5013475;28;20092;-75
2023/12/14 01:46:50;;;;;;;12.45;7.63;;;;;;;8.06;65.12;98000.00;5013477;28;20409;-75
2023/12/14 01:49:15;;;;;;;10.45;7.05;;;;;;;8.02;64.91;97990.81;5013470;28;20041;-76
2023/12/14 01:51:41;;;;;;;11.70;7.63;;;;;;;8.06;64.60;97999.19;5029886;28;20502;-75
2023/12/14 01:54:06;;;;;;;10.60;6.82;;;;;;;8.05;65.00;98003.56;5013594;28;20030;-74
2023/12/14 01:56:32;;;;;;;12.20;7.30;;;;;;;8.04;65.01;98003.69;5013479;28;20397;-75
2023/12/14 01:58:57;;;;;;;10.15;6.75;;;;;;;8.04;65.09;98001.91;5014566;28;20068;-74
2023/12/14 02:01:40;;;;;;;10.73;6.70;;;;;;;8.00;65.23;98005.69;5014139;28;20065;-74
2023/12/14 02:04:08;;;;;;;14.70;7.13;;;;;;;8.03;64.67;98004.63;5013498;28;20022;-75
2023/12/14 02:06:34;;;;;;;9.13;6.60;;;;;;;8.01;64.78;98001.31;5014519;28;20060;-74
2023/12/14 02:08:59;;;;;;;10.18;6.65;;;;;;;8.04;64.75;98009.69;5013128;28;20485;-76
2023/12/14 02:11:25;;;;;;;10.70;6.88;;;;;;;8.03;65.05;98010.63;4980861;28;20042;-77
2023/12/14 02:13:50;;;;;;;10.65;7.28;;;;;;;8.05;65.14;98021.75;4997182;28;20061;-75
2023/12/14 02:16:16;;;;;;;12.18;7.40;;;;;;;8.00;64.69;98008.31;5014217;28;20034;-76
2023/12/14 02:18:41;;;;;;;11.98;7.38;;;;;;;8.01;65.11;98011.72;5013151;28;20045;-75
2023/12/14 02:21:07;;;;;;;12.00;7.72;;;;;;;8.04;65.04;98007.09;4996459;28;20099;-75
2023/12/14 02:23:33;;;;;;;11.27;7.20;;;;;;;8.05;65.32;97994.91;5012593;28;20029;-75
2023/12/14 02:25:58;;;;;;;11.40;7.40;;;;;;;8.05;65.21;98000.13;5012915;28;20046;-74
2023/12/14 02:28:24;;;;;;;11.85;7.57;;;;;;;8.05;65.20;97998.38;5013042;28;20030;-74
2023/12/14 02:30:49;;;;;;;12.02;7.68;;;;;;;8.06;65.07;98009.59;5012650;28;20045;-75
2023/12/14 02:33:15;;;;;;;15.00;7.72;;;;;;;8.01;64.96;97986.53;5013930;28;20445;-75
2023/12/14 02:35:40;;;;;;;11.93;7.40;;;;;;;8.03;65.00;97983.81;5013656;28;20505;-75
2023/12/14 02:38:06;;;;;;;11.27;7.53;;;;;;;8.07;64.93;97990.44;4996454;28;20362;-75
2023/12/14 02:40:31;;;;;;;12.57;8.00;;;;;;;8.07;64.91;97998.25;4996309;28;20048;-74
2023/12/14 02:42:57;;;;;;;13.65;7.72;;;;;;;8.05;65.00;98008.75;5012694;28;20461;-75
2023/12/14 02:45:22;;;;;;;13.18;8.15;;;;;;;8.07;64.93;98008.66;5013447;28;20084;-74
2023/12/14 02:47:49;;;;;;;12.27;7.75;;;;;;;8.01;65.05;97999.53;5013641;28;20030;-74
2023/12/14 02:50:15;;;;;;;14.98;8.95;;;;;;;8.01;65.07;97999.53;4996135;28;20030;-75
2023/12/14 02:52:40;;;;;;;14.60;8.73;;;;;;;8.06;64.96;98010.41;5012910;28;20072;-75
2023/12/14 02:55:06;;;;;;;11.80;8.27;;;;;;;8.07;65.16;98017.25;5013720;28;20034;-75
2023/12/14 02:57:32;;;;;;;12.68;7.97;;;;;;;8.07;65.13;98017.25;5019504;28;20053;-76
2023/12/14 02:59:57;;;;;;;12.10;8.45;;;;;;;8.05;64.93;98005.31;5015353;28;20040;-74
2023/12/14 03:02:23;;;;;;;14.73;8.88;;;;;;;8.08;64.92;98008.53;5031935;28;20037;-75
2023/12/14 03:04:48;;;;;;;13.95;8.52;;;;;;;8.06;65.05;98015.59;5031534;28;20044;-76
2023/12/14 03:07:14;;;;;;;12.52;8.77;;;;;;;8.07;65.00;98006.88;5031807;28;20111;-74
2023/12/14 03:09:42;;;;;;;12.80;8.60;;;;;;;8.08;65.13;98011.13;5015427;28;20041;-75
2023/12/14 03:12:07;;;;;;;12.65;8.63;;;;;;;8.03;64.88;97996.81;5015776;28;20040;-75
2023/12/14 03:14:33;;;;;;;13.95;9.15;;;;;;;8.07;64.88;98006.03;5031600;28;20033;-75
2023/12/14 03:16:58;;;;;;;12.80;8.50;;;;;;;8.07;64.84;97999.06;5031623;28;20528;-76
2023/12/14 03:19:24;;;;;;;14.43;8.95;;;;;;;8.06;65.19;98002.59;5014966;28;20023;-75
2023/12/14 03:21:49;;;;;;;10.95;7.88;;;;;;;8.02;65.27;97988.22;5015092;28;20042;-74
2023/12/14 03:24:15;;;;;;;13.25;8.82;;;;;;;8.03;65.07;97982.03;5014992;28;20033;-75
2023/12/14 03:26:40;;;;;;;14.35;8.60;;;;;;;8.03;65.17;97986.44;5031417;28;20103;-75
2023/12/14 03:29:07;;;;;;;14.40;9.07;;;;;;;8.06;64.94;97981.81;5014921;28;20087;-75
2023/12/14 03:31:33;;;;;;;13.13;8.48;;;;;;;8.04;65.19;97975.91;5015149;28;20033;-75
2023/12/14 03:33:59;;;;;;;14.43;8.98;;;;;;;8.08;65.03;97992.09;5032587;28;20036;-76
2023/12/14 03:36:26;;;;;;;15.60;9.07;;;;;;;8.09;64.72;97997.16;5014878;28;20049;-75
2023/12/14 03:38:52;;;;;;;16.55;8.93;;;;;;;8.02;64.79;97974.38;5031170;28;20026;-76
2023/12/14 03:41:17;;;;;;;12.43;8.40;;;;;;;8.10;65.31;97990.22;5032224;28;20029;-75
2023/12/14 03:43:44;;;;;;;12.82;8.52;;;;;;;8.06;65.05;97987.00;5030943;28;20033;-74
2023/12/14 03:46:09;;;;;;;15.43;8.65;;;;;;;8.10;64.92;97991.03;5014582;28;20209;-76
2023/12/14 03:48:35;;;;;;;13.57;8.73;;;;;;;8.09;65.02;97994.56;5031323;28;20040;-74
2023/12/14 03:51:04;;;;;;;13.18;8.73;;;;;;;8.10;64.97;97985.84;5014451;28;20487;-76
2023/12/14 03:53:30;;;;;;;13.73;8.40;;;;;;;8.08;65.17;97992.09;5047418;28;20034;-75
2023/12/14 03:55:55;;;;;;;12.50;8.45;;;;;;;8.10;65.23;98004.03;5014815;28;20087;-75
2023/12/14 03:58:21;;;;;;;12.25;7.68;;;;;;;8.10;65.09;98004.03;5031897;28;20029;-75
2023/12/14 04:00:46;;;;;;;13.00;8.43;;;;;;;8.07;65.23;97990.44;5031774;28;20056;-74
2023/12/14 04:03:12;;;;;;;12.43;8.60;;;;;;;8.10;64.85;97998.00;5014722;28;20037;-76
2023/12/14 04:05:38;;;;;;;12.43;8.07;;;;;;;8.09;64.84;98001.53;5031098;28;20037;-75
2023/12/14 04:08:04;;;;;;;14.15;8.95;;;;;;;8.04;65.05;98009.69;5030958;28;20036;-76
2023/12/14 04:10:30;;;;;;;13.48;8.60;;;;;;;8.08;64.71;98003.31;5014954;28;20029;-75
2023/12/14 04:12:55;;;;;;;12.68;7.97;;;;;;;8.05;65.00;97989.72;5031177;28;20037;-75
2023/12/14 04:15:21;;;;;;;13.05;8.32;;;;;;;8.07;64.85;98011.25;5031969;28;20088;-75
2023/12/14 04:17:46;;;;;;;13.05;8.45;;;;;;;8.06;65.07;98018.19;5030779;28;20523;-75
2023/12/14 04:20:13;;;;;;;13.30;8.57;;;;;;;8.04;65.29;98022.69;5047005;28;20472;-74
2023/12/14 04:22:38;;;;;;;16.05;8.88;;;;;;;8.03;64.79;98022.81;5032099;28;20036;-74
2023/12/14 04:25:04;;;;;;;13.60;8.95;;;;;;;8.02;65.00;98001.19;5030479;28;20033;-75
2023/12/14 04:27:30;;;;;;;14.73;9.18;;;;;;;8.01;64.78;98004.72;5030720;28;20049;-75
2023/12/14 04:29:55;;;;;;;14.10;9.20;;;;;;;8.01;64.84;98009.94;5014146;28;20492;-75
2023/12/14 04:32:21;;;;;;;16.38;9.68;;;;;;;8.01;64.99;98012.53;5029131;28;20025;-74
2023/12/14 04:34:47;;;;;;;15.93;9.35;;;;;;;7.99;64.75;97998.84;5030613;28;20049;-75
2023/12/14 04:37:12;;;;;;;18.23;9.95;;;;;;;8.00;64.92;98005.69;5010261;28;20496;-75
2023/12/14 04:39:38;;;;;;;15.82;9.38;;;;;;;7.99;64.42;98009.22;5029459;28;20030;-75
2023/12/14 04:42:03;;;;;;;14.50;9.38;;;;;;;7.97;64.89;98011.94;5031102;28;20041;-68
2023/12/14 04:44:29;;;;;;;18.10;9.00;;;;;;;7.99;65.80;98017.03;5030479;28;20051;-75
2023/12/14 04:46:54;;;;;;;15.45;8.90;;;;;;;7.97;65.84;98011.94;5030915;28;20056;-73
2023/12/14 04:49:20;;;;;;;11.00;5.03;;;;;;;8.38;74.20;98014.03;5037697;28;20064;-71
2023/12/14 04:51:45;;;;;;;13.55;5.72;;;;;;;8.39;72.34;98007.91;5054820;28;20040;-77
2023/12/14 04:54:11;;;;;;;12.43;6.50;;;;;;;8.41;70.73;98011.19;4988622;28;20040;-71
2023/12/14 04:56:37;;;;;;;12.98;6.10;;;;;;;8.34;69.60;98001.28;4988592;28;20108;-73
2023/12/14 04:59:02;;;;;;;13.73;6.03;;;;;;;8.38;70.03;98019.22;5012693;28;20477;-71
2023/12/14 05:01:28;;;;;;;18.58;7.65;;;;;;;8.35;70.44;98007.31;4988508;28;20474;-72
2023/12/14 05:03:53;;;;;;;14.07;6.72;;;;;;;8.37;69.81;98002.00;5013179;28;20068;-72
2023/12/14 05:06:19;;;;;;;12.40;7.70;;;;;;;8.30;69.24;98004.22;5054357;28;20112;-73
2023/12/14 05:08:45;;;;;;;12.45;6.88;;;;;;;8.29;68.59;98011.22;5029343;28;20049;-72
2023/12/14 05:11:12;;;;;;;18.85;8.00;;;;;;;8.26;68.72;98003.66;5005688;28;20186;-78
2023/12/14 05:13:37;;;;;;;12.63;7.95;;;;;;;8.24;68.43;98000.34;5008403;28;20022;-74
2023/12/14 05:16:04;;;;;;;13.25;7.88;;;;;;;8.17;68.38;97986.16;5032709;28;20048;-76
2023/12/14 05:18:29;;;;;;;15.65;9.43;;;;;;;8.13;68.17;97980.41;5034603;28;20033;-76
2023/12/14 05:20:55;;;;;;;23.50;8.85;;;;;;;8.11;67.91;97979.69;5017607;28;20029;-78
2023/12/14 05:23:20;;;;;;;19.63;8.10;;;;;;;8.12;67.84;98001.31;5035380;28;20623;-78
2023/12/14 05:25:46;;;;;;;15.65;9.05;;;;;;;8.06;67.65;97991.38;5034354;28;20038;-78
2023/12/14 05:28:11;;;;;;;16.70;9.85;;;;;;;8.06;67.27;97994.81;5034157;28;20022;-79
2023/12/14 05:30:37;;;;;;;14.73;9.10;;;;;;;8.03;67.36;97983.81;5034006;28;20041;-79
2023/12/14 05:33:02;;;;;;;14.93;9.50;;;;;;;8.00;66.98;97987.50;5034320;28;20037;-78
2023/12/14 05:35:28;;;;;;;14.80;9.73;;;;;;;8.03;67.21;97991.63;5033433;28;20088;-79
2023/12/14 05:37:53;;;;;;;16.52;10.45;;;;;;;8.00;66.92;97989.25;5018006;28;20111;-78
2023/12/14 05:40:19;;;;;;;17.40;9.80;;;;;;;7.98;67.19;97989.38;5034258;28;20041;-78
2023/12/14 05:42:45;;;;;;;17.95;10.85;;;;;;;7.97;67.23;97977.34;5017327;28;20037;-77
2023/12/14 05:45:10;;;;;;;17.73;10.57;;;;;;;7.93;67.15;97962.94;5017493;28;20029;-78
2023/12/14 05:47:36;;;;;;;20.67;10.50;;;;;;;7.90;66.60;97968.38;5017020;28;20108;-82
2023/12/14 05:50:01;;;;;;;18.30;10.77;;;;;;;7.95;67.12;97979.22;5033310;28;20040;-79
2023/12/14 05:52:27;;;;;;;15.95;10.10;;;;;;;7.95;66.57;97979.22;5001210;28;20029;-79
2023/12/14 05:54:53;;;;;;;18.05;10.23;;;;;;;7.91;66.57;97978.63;5017796;28;20034;-79
2023/12/14 05:57:18;;;;;;;20.08;11.02;;;;;;;7.96;66.52;97975.69;5033669;28;20033;-80
2023/12/14 05:59:44;;;;;;;15.65;10.07;;;;;;;7.96;66.70;97971.31;5016937;28;20076;-78
2023/12/14 06:02:09;;;;;;;16.63;10.70;;;;;;;7.94;66.34;97969.78;5033995;28;20033;-81
2023/12/14 06:04:35;;;;;;;15.38;10.15;;;;;;;8.00;66.53;97991.84;5000620;28;20033;-79
2023/12/14 06:07:00;;;;;;;18.08;10.45;;;;;;;7.96;66.64;97991.28;5034847;28;20052;-79
2023/12/14 06:09:34;;;;;;;17.33;10.00;;;;;;;8.00;66.53;98002.25;5033841;28;20037;-78
2023/12/14 06:12:03;;;;;;;16.05;9.63;;;;;;;8.02;66.29;98005.56;5051490;28;20049;-78
2023/12/14 06:14:29;;;;;;;16.52;9.65;;;;;;;7.94;66.61;97998.38;5050328;28;20037;-78
2023/12/14 06:16:54;;;;;;;15.68;9.57;;;;;;;8.01;66.27;98002.13;5049912;28;20029;-77
2023/12/14 06:19:20;;;;;;;16.65;8.95;;;;;;;8.00;65.92;97997.06;5033275;28;20052;-79
2023/12/14 06:21:45;;;;;;;14.65;8.98;;;;;;;8.05;66.23;98000.97;5049505;28;20033;-78
2023/12/14 06:24:11;;;;;;;15.82;9.35;;;;;;;8.09;66.08;98010.16;5065763;28;20428;-77
2023/12/14 06:26:45;;;;;;;15.75;8.55;;;;;;;8.12;66.07;98003.91;5050152;28;20044;-81
2023/12/14 06:29:11;;;;;;;16.05;8.00;;;;;;;8.13;65.93;98002.97;5033035;28;20030;-80
2023/12/14 06:31:37;;;;;;;15.88;7.72;;;;;;;8.16;65.97;98015.72;5016069;28;20103;-79
2023/12/14 06:34:03;;;;;;;12.13;7.90;;;;;;;8.20;65.83;98024.13;5040952;28;20061;-79
2023/12/14 06:36:35;;;;;;;11.23;7.60;;;;;;;8.24;65.62;98030.72;5007234;28;20049;-78
2023/12/14 06:39:01;;;;;;;11.48;7.80;;;;;;;8.27;65.52;98025.28;5043551;28;20425;-76
2023/12/14 06:41:27;;;;;;;14.25;8.23;;;;;;;8.31;65.42;98032.72;4999472;28;20025;-76
2023/12/14 06:43:53;;;;;;;12.95;8.05;;;;;;;8.31;65.52;98022.31;5032251;28;20025;-76
2023/12/14 06:46:18;;;;;;;13.10;8.65;;;;;;;8.41;65.26;98024.19;5032012;28;20041;-76
2023/12/14 06:48:44;;;;;;;11.50;7.90;;;;;;;8.45;65.27;98023.88;5032435;28;20033;-75
2023/12/14 06:51:10;;;;;;;11.60;8.13;;;;;;;8.55;64.90;98021.34;5015839;28;20412;-80
2023/12/14 06:53:38;;;;;;;15.27;9.05;;;;;;;8.61;64.79;98036.47;5015679;28;20021;-76
2023/12/14 06:56:04;;;;;;;11.57;7.80;;;;;;;8.66;64.59;98023.13;5031921;28;20043;-77
2023/12/14 06:58:30;;;;;;;14.95;8.13;;;;;;;8.73;64.43;98011.28;5032005;28;20037;-75
2023/12/14 07:00:55;;;;;;;11.95;8.02;;;;;;;8.83;64.65;98021.78;5000170;28;20129;-80
2023/12/14 07:03:21;;;;;;;14.50;7.68;;;;;;;9.00;67.07;98026.44;5038742;28;20452;-77
2023/12/14 07:05:46;;;;;;;13.32;7.47;;;;;;;9.17;66.66;98034.63;5015423;28;20451;-77
2023/12/14 07:08:12;;;;;;;10.00;7.32;;;;;;;9.23;66.44;98034.13;5015892;28;20068;-77
2023/12/14 07:10:37;;;;;;;14.10;6.95;;;;;;;9.23;66.29;98029.78;5015501;28;20087;-76
2023/12/14 07:13:03;;;;;;;11.35;7.32;;;;;;;9.33;66.19;98035.06;5015537;28;20033;-79
2023/12/14 07:15:28;;;;;;;10.32;5.10;;;;;;;9.48;69.59;98014.72;5015479;28;20037;-76
2023/12/14 07:17:54;;;;;;;9.23;6.13;;;;;;;9.66;68.71;98017.56;5031921;28;20049;-78
2023/12/14 07:20:21;;;;;;;9.00;6.45;;;;;;;9.76;67.58;98028.84;5031737;28;20401;-78
2023/12/14 07:22:46;;;;;;;10.75;6.40;;;;;;;9.80;67.10;98020.78;5019071;28;20033;-78
2023/12/14 07:25:12;;;;;;;14.25;6.22;;;;;;;9.87;66.66;98021.94;4998845;28;20029;-79
2023/12/14 07:27:37;;;;;;;9.43;6.35;;;;;;;9.94;66.36;98029.06;5031480;28;20148;-78
2023/12/14 07:30:03;;;;;;;11.02;7.00;;;;;;;10.02;66.13;98041.47;5015085;28;20040;-79
2023/12/14 07:32:29;;;;;;;10.35;6.20;;;;;;;10.00;66.03;98032.13;5015291;28;20056;-79
2023/12/14 07:34:54;;;;;;;10.52;6.78;;;;;;;10.11;66.10;98037.25;5031352;28;20037;-78
2023/12/14 07:37:20;;;;;;;11.18;6.50;;;;;;;10.14;66.00;98048.25;4993595;28;20123;-78
2023/12/14 07:39:45;;;;;;;12.38;6.53;;;;;;;10.20;65.74;98039.09;4995930;28;20038;-77
2023/12/14 07:42:12;;;;;;;10.15;6.65;;;;;;;10.27;65.60;98045.41;5011685;28;20112;-79
2023/12/14 07:44:40;;;;;;;9.02;6.35;;;;;;;10.32;65.39;98035.44;4995785;28;20038;-79
2023/12/14 07:47:06;;;;;;;11.25;7.22;;;;;;;10.43;64.86;98038.91;4999602;28;20041;-80
2023/12/14 07:49:31;;;;;;;11.27;6.70;;;;;;;10.55;64.26;98040.44;5032846;28;20025;-81
2023/12/14 07:51:57;;;;;;;12.38;7.28;;;;;;;10.65;64.13;98050.91;5032791;28;20416;-81
2023/12/14 07:54:22;;;;;;;11.25;7.50;;;;;;;10.75;64.08;98040.47;5031304;28;20030;-74
2023/12/14 07:56:48;;;;;;;10.13;6.68;;;;;;;10.83;63.66;98040.63;5032486;28;20033;-82
2023/12/14 07:59:13;;;;;;;10.70;6.95;;;;;;;10.94;63.47;98040.50;5015164;28;20053;-80
2023/12/14 08:01:39;;;;;;;11.48;6.90;;;;;;;11.06;62.89;98043.00;5031366;28;20484;-73
2023/12/14 08:04:04;;;;;;;11.80;6.68;;;;;;;11.14;62.75;98037.91;5032426;28;20025;-81
2023/12/14 08:06:30;;;;;;;9.50;6.57;;;;;;;11.25;62.80;98032.53;5032420;28;20042;-74
2023/12/14 08:08:57;;;;;;;7.20;3.70;;;;;;;12.09;69.51;98044.88;5014665;28;20386;-77
2023/12/14 08:11:24;;;;;;;5.33;3.30;;;;;;;12.80;66.93;98043.41;5028097;28;20037;-78
2023/12/14 08:13:49;;;;;;;7.65;3.40;;;;;;;12.93;64.35;98043.06;5015842;28;20041;-79
2023/12/14 08:16:17;;;;;;;9.27;3.90;;;;;;;12.92;63.32;98054.53;5014766;28;20033;-76
2023/12/14 08:18:48;;;;;;;12.37;5.23;;;;;;;12.83;63.28;98055.41;5029369;28;20030;-81
2023/12/14 08:21:14;;;;;;;11.75;5.30;;;;;;;12.74;62.58;98044.00;5031810;28;20746;-83
2023/12/14 08:23:39;;;;;;;11.60;6.10;;;;;;;12.72;62.56;98047.75;4998429;28;20034;-78
2023/12/14 08:26:05;;;;;;;14.60;7.13;;;;;;;12.64;62.59;98048.50;5026887;28;20045;-77
2023/12/14 08:28:30;;;;;;;17.05;9.35;;;;;;;12.56;62.63;98044.00;5006751;28;20516;-75
2023/12/14 08:31:01;;;;;;;22.88;12.18;;;;;;;12.49;62.19;98042.91;4994671;28;20041;-76
2023/12/14 08:33:27;;;;;;;24.67;14.18;;;;;;;12.44;61.91;98048.59;4995403;28;20481;-74
2023/12/14 08:35:53;;;;;;;11.93;5.60;;;;;;;12.57;65.48;98045.66;5036651;28;20081;-75
2023/12/14 08:38:18;;;;;;;8.18;5.45;;;;;;;13.05;65.55;98051.53;4995700;28;20417;-79
2023/12/14 08:40:44;;;;;;;17.17;8.10;;;;;;;13.19;64.25;98051.00;5006095;28;20072;-77
2023/12/14 08:43:10;;;;;;;9.13;5.68;;;;;;;13.55;63.09;98043.13;5030631;28;20032;-73
2023/12/14 08:45:35;;;;;;;15.27;6.70;;;;;;;13.78;61.76;98044.44;5011020;28;20048;-77
2023/12/14 08:48:01;;;;;;;12.63;7.75;;;;;;;13.79;60.92;98053.94;5033168;28;20108;-80
2023/12/14 08:50:26;;;;;;;25.38;12.45;;;;;;;13.72;59.76;98057.16;5034194;28;20105;-79
2023/12/14 08:52:52;;;;;;;27.80;14.45;;;;;;;13.64;59.64;98061.53;5034666;28;20034;-81
2023/12/14 08:55:18;;;;;;;33.03;17.08;;;;;;;13.54;59.18;98061.63;5025518;28;20049;-79
2023/12/14 08:57:43;;;;;;;42.92;20.55;;;;;;;13.50;59.29;98060.28;5028020;28;20029;-80
2023/12/14 09:00:10;;;;;;;47.20;22.02;;;;;;;13.47;58.82;98048.31;5034316;28;20042;-79
2023/12/14 09:02:35;;;;;;;43.63;22.85;;;;;;;13.39;58.99;98029.88;5030505;28;20108;-76
2023/12/14 09:05:01;;;;;;;49.40;26.67;;;;;;;13.33;59.23;98038.34;5018300;28;20129;-75
2023/12/14 09:07:26;;;;;;;17.90;7.88;;;;;;;13.49;62.46;98030.63;5034175;28;20025;-77
2023/12/14 09:09:52;;;;;;;18.23;9.02;;;;;;;13.79;61.55;98036.41;5015860;28;20485;-80
2023/12/14 09:12:17;;;;;;;27.63;11.35;;;;;;;13.91;60.53;98034.31;5007207;28;20460;-82
2023/12/14 09:14:43;;;;;;;30.73;13.98;;;;;;;13.84;59.93;98030.69;4982776;28;20068;-85
2023/12/14 09:17:08;;;;;;;27.10;13.70;;;;;;;13.81;60.06;98031.00;4984546;28;20117;-85
2023/12/14 09:19:34;;;;;;;28.50;15.25;;;;;;;13.78;60.25;98023.44;4987547;28;20108;-82
2023/12/14 09:21:59;;;;;;;37.05;18.55;;;;;;;13.78;59.51;98010.31;5002552;28;20029;-81
2023/12/14 09:24:25;;;;;;;47.25;20.77;;;;;;;13.75;59.23;98003.59;5034128;28;20029;-85
2023/12/14 09:26:51;;;;;;;45.30;20.73;;;;;;;13.79;59.07;98009.34;5051256;28;20040;-80
2023/12/14 09:29:16;;;;;;;48.80;22.63;;;;;;;13.76;58.79;98002.63;5034892;28;20025;-81
2023/12/14 09:31:42;;;;;;;51.83;24.98;;;;;;;13.71;58.74;97989.97;5017366;28;20072;-80
2023/12/14 09:34:09;;;;;;;49.90;24.70;;;;;;;13.72;58.93;98002.06;5017553;28;20033;-80
2023/12/14 09:36:34;;;;;;;54.83;26.50;;;;;;;13.71;58.55;98004.84;5033597;28;20108;-78
2023/12/14 09:39:00;;;;;;;63.50;28.30;;;;;;;13.64;58.76;98004.66;5017081;28;20041;-80
2023/12/14 09:41:25;;;;;;;59.83;28.42;;;;;;;13.65;58.67;97995.81;5017454;28;20410;-79
2023/12/14 09:43:52;;;;;;;62.47;29.77;;;;;;;13.77;58.37;98006.88;5017106;28;20044;-81
2023/12/14 09:46:18;;;;;;;60.88;31.45;;;;;;;13.90;57.76;98001.22;5035061;28;20447;-87
2023/12/14 09:48:45;;;;;;;71.90;34.70;;;;;;;14.28;56.91;97999.09;5034973;28;20030;-84
2023/12/14 09:51:10;;;;;;;74.80;33.53;;;;;;;14.53;56.41;98000.00;5002176;28;20143;-82
2023/12/14 09:53:36;;;;;;;86.35;33.85;;;;;;;14.61;55.97;97989.53;5013880;28;20506;-81
2023/12/14 09:56:02;;;;;;;68.88;34.28;;;;;;;14.56;55.99;97993.56;5015318;28;20532;-83
2023/12/14 09:58:27;;;;;;;72.05;35.75;;;;;;;14.53;56.12;97992.09;5014959;28;20033;-80
2023/12/14 10:00:53;;;;;;;68.85;34.30;;;;;;;14.62;55.89;97992.97;5032661;28;20038;-79
2023/12/14 10:03:28;;;;;;;75.28;37.30;;;;;;;14.80;55.39;97988.41;5033178;28;20034;-80
2023/12/14 10:05:57;;;;;;;78.00;35.83;;;;;;;14.94;54.74;97975.59;5034426;28;20040;-79
2023/12/14 10:08:23;;;;;;;75.50;36.15;;;;;;;15.02;54.41;97979.06;5000197;28;20040;-80
2023/12/14 10:10:51;;;;;;;88.75;37.83;;;;;;;15.23;53.90;97988.25;5034240;28;20025;-78
2023/12/14 10:13:17;;;;;;;84.72;36.85;;;;;;;15.51;53.16;97987.88;5016773;28;20042;-81
2023/12/14 10:15:47;;;;;;;81.90;37.50;;;;;;;15.66;52.58;97994.13;5032867;28;20048;-82
2023/12/14 10:18:24;;;;;;;98.00;38.85;;;;;;;15.70;52.25;97982.28;5016592;28;20030;-81
2023/12/14 10:20:49;;;;;;;81.90;38.35;;;;;;;15.52;52.51;97977.19;5033486;28;20037;-81
2023/12/14 10:23:15;;;;;;;81.03;38.65;;;;;;;15.42;52.85;97994.16;5016887;28;20512;-80
2023/12/14 10:25:42;;;;;;;82.25;39.00;;;;;;;15.45;52.46;97978.03;4999836;28;20107;-81
2023/12/14 10:28:07;;;;;;;76.95;36.50;;;;;;;15.40;52.77;97972.47;5032782;28;20090;-81
2023/12/14 10:30:33;;;;;;;79.88;37.80;;;;;;;15.59;52.39;97977.34;5015725;28;20045;-83
2023/12/14 10:32:58;;;;;;;84.28;37.45;;;;;;;15.72;52.26;97969.78;4999974;28;20057;-81
2023/12/14 10:35:24;;;;;;;71.88;35.58;;;;;;;15.85;52.07;97964.00;5016434;28;20041;-83
2023/12/14 10:37:51;;;;;;;73.00;36.28;;;;;;;16.03;51.87;97952.41;5033001;28;20041;-81
2023/12/14 10:40:16;;;;;;;82.03;36.72;;;;;;;16.24;51.58;97949.19;5033802;28;20030;-82
2023/12/14 10:42:43;;;;;;;70.40;34.40;;;;;;;16.51;50.71;97940.00;5033063;28;20454;-83
2023/12/14 10:45:10;;;;;;;72.72;35.20;;;;;;;16.78;50.54;97943.94;5050703;28;20124;-83
2023/12/14 10:47:35;;;;;;;71.68;35.80;;;;;;;16.96;49.84;97956.81;5000616;28;20033;-81
2023/12/14 10:50:01;;;;;;;69.65;34.22;;;;;;;17.13;49.71;97940.88;5016008;28;20406;-81
2023/12/14 10:52:26;;;;;;;68.50;33.38;;;;;;;17.25;49.46;97941.25;5016149;28;20124;-83
2023/12/14 10:54:54;;;;;;;63.38;32.13;;;;;;;17.32;49.14;97932.47;5016026;28;20038;-80
2023/12/14 10:57:19;;;;;;;62.47;31.70;;;;;;;17.33;49.33;97922.72;5016801;28;20028;-84
2023/12/14 10:59:46;;;;;;;66.03;30.25;;;;;;;17.40;49.11;97936.84;4999184;28;20026;-80
2023/12/14 11:02:12;;;;;;;61.28;29.02;;;;;;;17.34;49.05;97921.72;4999346;28;20029;-80
2023/12/14 11:04:59;;;;;;;66.60;29.27;;;;;;;17.16;49.33;97912.34;5032715;28;20041;-80
2023/12/14 11:07:46;;;;;;;49.22;27.42;;;;;;;17.30;48.98;97923.91;5015466;28;20026;-82
2023/12/14 11:10:12;;;;;;;55.28;27.63;;;;;;;17.28;48.97;97919.81;5032186;28;20136;-81
2023/12/14 11:12:37;;;;;;;48.40;24.60;;;;;;;17.21;49.24;97913.63;5031797;28;20496;-81
2023/12/14 11:15:05;;;;;;;50.58;25.60;;;;;;;17.15;49.34;97912.50;5015596;28;20385;-82
2023/12/14 11:17:31;;;;;;;45.13;23.83;;;;;;;17.06;49.55;97922.31;5015345;28;20041;-80
2023/12/14 11:19:57;;;;;;;41.67;23.13;;;;;;;16.96;49.72;97909.38;5048721;28;20029;-82
2023/12/14 11:22:27;;;;;;;41.47;23.10;;;;;;;16.82;49.95;97900.41;5032459;28;20542;-80